createdAt,value
2019-05-17T00:01:27.028Z,17.90
2019-05-17T00:05:31.128Z,18.03
2019-05-17T00:09:37.399Z,17.13
2019-05-17T00:13:41.308Z,18.70
2019-05-17T00:17:46.981Z,18.83
2019-05-17T00:21:51.344Z,19.57
2019-05-17T00:25:56.403Z,18.97
2019-05-17T00:30:00.703Z,21.47
2019-05-17T00:34:07.131Z,20.93
2019-05-17T00:38:10.843Z,20.90
2019-05-17T00:42:16.999Z,21.13
2019-05-17T00:46:20.995Z,21.77
2019-05-17T00:50:27.333Z,20.03
2019-05-17T00:54:31.068Z,20.23
2019-05-17T00:58:37.048Z,21.13
2019-05-17T01:02:41.164Z,21.63
2019-05-17T01:06:46.902Z,21.17
2019-05-17T01:10:51.607Z,21.00
2019-05-17T01:14:58.123Z,21.60
2019-05-17T01:19:01.791Z,21.97
2019-05-17T01:23:07.599Z,21.93
2019-05-17T01:27:11.948Z,21.23
2019-05-17T01:31:17.260Z,20.97
2019-05-17T01:35:21.580Z,22.13
2019-05-17T01:39:26.889Z,19.83
2019-05-17T01:43:31.199Z,22.53
2019-05-17T01:47:36.779Z,21.00
2019-05-17T01:51:41.256Z,21.13
2019-05-17T01:55:46.616Z,21.37
2019-05-17T01:59:50.883Z,22.73
2019-05-17T02:03:57.362Z,21.47
2019-05-17T02:08:01.136Z,22.13
2019-05-17T02:12:06.705Z,22.53
2019-05-17T02:16:48.241Z,22.10
2019-05-17T02:20:52.758Z,21.47
2019-05-17T02:25:16.918Z,22.13
2019-05-17T02:29:21.480Z,22.80
2019-05-17T02:33:26.101Z,23.33
2019-05-17T02:37:33.178Z,23.37
2019-05-17T02:41:36.212Z,22.80
2019-05-17T02:45:43.302Z,23.27
2019-05-17T02:49:46.548Z,24.67
2019-05-17T02:53:52.680Z,23.80
2019-05-17T02:57:56.733Z,23.07
2019-05-17T03:02:03.396Z,23.90
2019-05-17T03:06:06.807Z,23.03
2019-05-17T03:10:22.059Z,22.70
2019-05-17T03:14:17.122Z,22.70
2019-05-17T03:18:22.907Z,22.43
2019-05-17T03:22:27.361Z,25.13
2019-05-17T03:26:32.802Z,23.50
2019-05-17T03:30:46.031Z,23.87
2019-05-17T03:34:47.975Z,23.60
2019-05-17T03:38:53.448Z,23.83
2019-05-17T03:42:57.845Z,24.20
2019-05-17T03:47:02.514Z,24.30
2019-05-17T03:51:06.886Z,23.80
2019-05-17T03:55:13.182Z,23.87
2019-05-17T03:59:17.101Z,23.37
2019-05-17T04:03:22.896Z,24.37
2019-05-17T04:07:27.185Z,23.30
2019-05-17T04:11:36.026Z,23.97
2019-05-17T04:15:37.375Z,24.97
2019-05-17T04:19:42.578Z,23.73
2019-05-17T04:23:46.928Z,25.60
2019-05-17T04:27:53.622Z,24.87
2019-05-17T04:31:57.162Z,24.27
2019-05-17T04:36:02.654Z,23.83
2019-05-17T04:40:07.211Z,24.50
2019-05-17T04:44:12.844Z,25.10
2019-05-17T04:48:17.880Z,24.03
2019-05-17T04:52:22.766Z,22.73
2019-05-17T04:56:34.227Z,22.80
2019-05-17T05:00:39.224Z,23.13
2019-05-17T05:04:44.064Z,23.00
2019-05-17T05:08:48.236Z,24.00
2019-05-17T05:12:52.780Z,22.10
2019-05-17T05:16:56.938Z,23.80
2019-05-17T05:21:03.675Z,24.57
2019-05-17T05:25:07.141Z,24.50
2019-05-17T05:29:12.802Z,24.00
2019-05-17T05:33:17.280Z,22.97
2019-05-17T05:37:23.211Z,23.43
2019-05-17T05:41:28.089Z,24.30
2019-05-17T05:45:32.385Z,21.83
2019-05-17T05:49:36.618Z,22.00
2019-05-17T05:53:41.906Z,20.77
2019-05-17T05:57:46.347Z,21.33
2019-05-17T06:01:52.506Z,20.87
2019-05-17T06:05:56.467Z,19.80
2019-05-17T06:10:02.265Z,20.40
2019-05-17T06:14:06.515Z,17.97
2019-05-17T06:18:12.230Z,17.70
2019-05-17T06:22:16.644Z,15.83
2019-05-17T06:26:23.485Z,16.90
2019-05-17T06:30:26.738Z,16.23
2019-05-17T06:34:32.801Z,15.57
2019-05-17T06:38:36.856Z,14.07
2019-05-17T06:42:44.764Z,12.93
2019-05-17T06:46:47.087Z,11.10
2019-05-17T06:50:51.933Z,10.70
2019-05-17T06:54:56.392Z,10.80
2019-05-17T06:59:00.609Z,11.70
2019-05-17T07:03:04.862Z,11.43
2019-05-17T07:07:30.130Z,10.97
2019-05-17T07:11:33.546Z,9.70
2019-05-17T07:15:46.856Z,10.00
2019-05-17T07:19:44.282Z,10.70
2019-05-17T07:23:49.882Z,10.23
2019-05-17T07:27:54.304Z,10.63
2019-05-17T07:32:00.362Z,10.53
2019-05-17T07:36:04.390Z,8.60
2019-05-17T07:40:10.774Z,10.07
2019-05-17T07:44:15.322Z,11.00
2019-05-17T07:48:19.991Z,11.10
2019-05-17T07:52:24.566Z,10.97
2019-05-17T07:56:30.542Z,10.93
2019-05-17T08:00:34.954Z,11.20
2019-05-17T08:04:40.678Z,10.10
2019-05-17T08:08:45.199Z,10.10
2019-05-17T08:12:49.867Z,8.80
2019-05-17T08:16:54.208Z,8.60
2019-05-17T08:20:59.687Z,8.43
2019-05-17T08:25:04.040Z,8.97
2019-05-17T08:29:09.970Z,9.40
2019-05-17T08:33:14.099Z,8.40
2019-05-17T08:37:20.479Z,8.73
2019-05-17T08:41:24.381Z,8.63
2019-05-17T08:45:29.594Z,9.03
2019-05-17T08:49:33.927Z,7.60
2019-05-17T08:53:39.871Z,8.40
2019-05-17T08:57:43.998Z,7.93
2019-05-17T09:01:50.135Z,7.70
2019-05-17T09:05:54.075Z,7.77
2019-05-17T09:09:58.268Z,8.67
2019-05-17T09:14:02.496Z,7.50
2019-05-17T09:18:06.707Z,8.70
2019-05-17T09:22:11.006Z,8.67
2019-05-17T09:26:15.226Z,8.93
2019-05-17T09:30:20.370Z,8.80
2019-05-17T09:34:24.848Z,9.23
2019-05-17T09:38:29.502Z,8.13
2019-05-17T09:42:33.996Z,8.23
2019-05-17T09:46:39.591Z,9.17
2019-05-17T09:50:43.821Z,8.00
2019-05-17T09:54:50.190Z,9.50
2019-05-17T09:58:53.975Z,8.97
2019-05-17T10:03:00.062Z,9.40
2019-05-17T10:07:04.167Z,9.73
2019-05-17T10:11:11.278Z,9.93
2019-05-17T10:15:14.344Z,9.60
2019-05-17T10:19:21.881Z,10.10
2019-05-17T10:23:24.435Z,9.80
2019-05-17T10:27:30.224Z,10.30
2019-05-17T10:31:34.562Z,10.30
2019-05-17T10:35:40.646Z,11.07
2019-05-17T10:39:44.659Z,11.63
2019-05-17T10:43:50.081Z,10.93
2019-05-17T10:47:54.428Z,10.23
2019-05-17T10:51:59.917Z,10.17
2019-05-17T10:56:04.272Z,8.77
2019-05-17T11:00:10.254Z,8.00
2019-05-17T11:04:14.606Z,7.90
2019-05-17T11:08:19.761Z,8.67
2019-05-17T11:12:24.240Z,8.40
2019-05-17T11:16:28.446Z,8.27
2019-05-17T11:20:32.687Z,9.80
2019-05-17T11:24:36.903Z,10.83
2019-05-17T11:28:41.120Z,11.40
2019-05-17T11:32:45.359Z,12.43
2019-05-17T11:36:49.587Z,12.97
2019-05-17T11:40:53.806Z,13.20
2019-05-17T11:44:58.056Z,12.63
2019-05-17T11:49:02.301Z,10.70
2019-05-17T11:53:06.521Z,9.90
2019-05-17T11:57:12.395Z,12.37
2019-05-17T12:01:16.867Z,11.00
2019-05-17T12:05:21.156Z,12.10
2019-05-17T12:09:36.900Z,12.50
2019-05-17T12:13:31.251Z,13.10
2019-05-17T12:17:35.448Z,12.27
2019-05-17T12:21:39.720Z,13.67
2019-05-17T12:25:44.586Z,13.97
2019-05-17T12:29:49.068Z,11.97
2019-05-17T12:33:53.311Z,11.97
2019-05-17T12:37:57.516Z,12.80
2019-05-17T12:42:01.925Z,11.90
2019-05-17T12:46:06.341Z,13.33
2019-05-17T12:50:11.283Z,12.33
2019-05-17T12:54:16.127Z,12.87
2019-05-17T12:58:20.473Z,13.03
2019-05-17T13:02:24.737Z,12.73
2019-05-17T13:06:28.950Z,11.03
2019-05-17T13:10:33.284Z,10.53
2019-05-17T13:14:37.502Z,10.40
2019-05-17T13:18:41.805Z,11.27
2019-05-17T13:22:46.049Z,13.83
2019-05-17T13:26:50.284Z,12.97
2019-05-17T13:30:54.541Z,12.23
2019-05-17T13:34:58.735Z,12.73
2019-05-17T13:39:03.636Z,12.30
2019-05-17T13:43:07.854Z,11.80
2019-05-17T13:47:12.121Z,11.57
2019-05-17T13:51:16.347Z,9.97
2019-05-17T13:55:20.640Z,11.33
2019-05-17T13:59:24.861Z,16.33
2019-05-17T14:03:29.142Z,11.90
2019-05-17T14:07:33.344Z,11.43
2019-05-17T14:11:37.571Z,11.30
2019-05-17T14:15:41.792Z,10.47
2019-05-17T14:19:45.979Z,12.00
2019-05-17T14:23:50.195Z,11.27
2019-05-17T14:27:54.428Z,11.47
2019-05-17T14:31:58.642Z,10.67
2019-05-17T14:36:02.877Z,10.97
2019-05-17T14:40:08.129Z,8.90
2019-05-17T14:44:12.352Z,8.67
2019-05-17T14:48:16.563Z,8.93
2019-05-17T14:52:21.556Z,9.80
2019-05-17T14:56:25.783Z,10.07
2019-05-17T15:00:29.975Z,9.70
2019-05-17T15:04:34.211Z,10.70
2019-05-17T15:08:38.419Z,12.43
2019-05-17T15:12:42.633Z,11.93
2019-05-17T15:16:46.864Z,14.20
2019-05-17T15:20:51.070Z,15.80
2019-05-17T15:24:55.770Z,11.63
2019-05-17T15:29:00.081Z,10.60
2019-05-17T15:33:04.278Z,11.33
2019-05-17T15:37:08.721Z,11.10
2019-05-17T15:41:13.002Z,10.77
2019-05-17T15:45:17.223Z,10.53
2019-05-17T15:49:21.439Z,10.60
2019-05-17T15:53:25.652Z,10.93
2019-05-17T15:57:29.876Z,11.70
2019-05-17T16:01:34.098Z,11.00
2019-05-17T16:05:38.320Z,12.10
2019-05-17T16:09:42.546Z,11.60
2019-05-17T16:13:46.768Z,12.03
2019-05-17T16:17:50.978Z,12.17
2019-05-17T16:21:55.206Z,12.07
2019-05-17T16:25:59.453Z,11.20
2019-05-17T16:30:04.169Z,11.27
2019-05-17T16:34:08.384Z,10.53
2019-05-17T16:38:12.612Z,12.10
2019-05-17T16:42:16.861Z,11.63
2019-05-17T16:46:21.076Z,12.87
2019-05-17T16:50:25.295Z,12.20
2019-05-17T16:54:29.508Z,12.57
2019-05-17T16:58:34.019Z,13.13
2019-05-17T17:02:38.296Z,13.10
2019-05-17T17:06:42.699Z,13.10
2019-05-17T17:10:46.926Z,11.97
2019-05-17T17:14:51.143Z,11.70
2019-05-17T17:18:55.372Z,10.70
2019-05-17T17:22:59.588Z,10.43
2019-05-17T17:27:04.689Z,10.73
2019-05-17T17:31:12.972Z,10.57
2019-05-17T17:35:17.694Z,11.10
2019-05-17T17:39:22.729Z,11.03
2019-05-17T17:43:26.915Z,10.93
2019-05-17T17:47:31.180Z,11.27
2019-05-17T17:51:35.434Z,10.60
2019-05-17T17:55:39.640Z,11.27
2019-05-17T17:59:44.172Z,11.10
2019-05-17T18:03:48.449Z,10.77
2019-05-17T18:07:53.114Z,10.60
2019-05-17T18:11:57.327Z,11.40
2019-05-17T18:16:01.699Z,11.00
2019-05-17T18:20:06.022Z,10.43
2019-05-17T18:24:10.251Z,11.60
2019-05-17T18:28:14.446Z,10.23
2019-05-17T18:32:18.667Z,10.63
2019-05-17T18:36:22.901Z,10.20
2019-05-17T18:40:27.131Z,9.67
2019-05-17T18:44:31.455Z,9.23
2019-05-17T18:48:35.656Z,9.93
2019-05-17T18:52:39.903Z,9.60
2019-05-17T18:56:44.121Z,9.63
2019-05-17T19:00:48.393Z,10.77
2019-05-17T19:04:52.617Z,10.07
2019-05-17T19:08:56.891Z,9.97
2019-05-17T19:13:01.111Z,10.30
2019-05-17T19:17:05.400Z,10.57
2019-05-17T19:21:09.639Z,10.73
2019-05-17T19:25:13.960Z,11.70
2019-05-17T19:29:18.164Z,10.50
2019-05-17T19:33:22.369Z,11.70
2019-05-17T19:37:26.607Z,12.07
2019-05-17T19:41:30.834Z,10.63
2019-05-17T19:45:35.079Z,10.83
2019-05-17T19:49:39.432Z,11.00
2019-05-17T19:53:43.806Z,10.50
2019-05-17T19:57:48.016Z,12.20
2019-05-17T20:01:52.343Z,11.07
2019-05-17T20:05:56.564Z,12.07
2019-05-17T20:10:00.854Z,12.23
2019-05-17T20:14:05.213Z,11.90
2019-05-17T20:18:09.791Z,12.07
2019-05-17T20:22:14.076Z,12.43
2019-05-17T20:26:18.340Z,12.67
2019-05-17T20:30:22.644Z,12.50
2019-05-17T20:34:29.088Z,12.47
2019-05-17T20:38:32.955Z,13.20
2019-05-17T20:42:37.252Z,13.30
2019-05-17T20:46:41.509Z,13.47
2019-05-17T20:50:45.699Z,13.13
2019-05-17T20:54:50.001Z,12.47
2019-05-17T20:58:54.236Z,13.40
2019-05-17T21:02:58.571Z,12.33
2019-05-17T21:07:02.833Z,12.90
2019-05-17T21:11:07.191Z,13.63
2019-05-17T21:15:11.528Z,13.13
2019-05-17T21:19:15.746Z,13.70
2019-05-17T21:23:19.978Z,15.07
2019-05-17T21:27:24.262Z,13.97
2019-05-17T21:31:28.570Z,14.90
2019-05-17T21:35:32.798Z,14.30
2019-05-17T21:39:37.016Z,15.60
2019-05-17T21:43:41.268Z,15.83
2019-05-17T21:47:45.569Z,15.93
2019-05-17T21:51:50.067Z,17.10
2019-05-17T21:55:54.531Z,16.60
2019-05-17T21:59:58.775Z,16.50
2019-05-17T22:04:03.249Z,16.00
2019-05-17T22:08:07.550Z,15.73
2019-05-17T22:12:13.432Z,16.57
2019-05-17T22:16:19.890Z,14.70
2019-05-17T22:20:23.535Z,15.33
2019-05-17T22:24:27.770Z,15.00
2019-05-17T22:28:31.983Z,16.23
2019-05-17T22:32:36.180Z,16.30
2019-05-17T22:36:40.467Z,16.17
2019-05-17T22:40:44.679Z,16.97
2019-05-17T22:44:49.364Z,16.90
2019-05-17T22:48:53.578Z,17.40
2019-05-17T22:52:57.976Z,19.47
2019-05-17T22:57:02.167Z,20.47
2019-05-17T23:01:06.388Z,20.20
2019-05-17T23:05:10.787Z,21.43
2019-05-17T23:09:14.994Z,20.87
2019-05-17T23:13:19.219Z,22.80
2019-05-17T23:17:23.334Z,23.17
2019-05-17T23:21:27.560Z,23.70
2019-05-17T23:25:31.779Z,24.40
2019-05-17T23:29:36.080Z,23.63
2019-05-17T23:33:40.291Z,25.60
2019-05-17T23:37:44.484Z,27.30
2019-05-17T23:41:48.752Z,27.77
2019-05-17T23:45:52.988Z,26.93
2019-05-17T23:49:57.212Z,28.57
2019-05-17T23:54:01.420Z,27.43
2019-05-17T23:58:08.476Z,27.80
